Time,TemperatureF,DewpointF,PressureIn,WindDirection,WindDirectionDegrees,WindSpeedMPH,WindSpeedGustMPH,Humidity,HourlyPrecipIn,Conditions,Clouds,dailyrainin,SoftwareType,DateUTC
2013-12-11 00:01:00,23.9,23.4,30.24,WSW,248,0.0,0.0,98,0.00,,CLR,0.00,VWS V14.01,2013-12-11 05:01:00,
2013-12-11 00:03:00,23.9,23.4,30.27,WSW,248,0.0,0.0,98,0.00,,CLR,0.00,VWS V14.01,2013-12-11 05:03:00,
2013-12-11 00:06:00,23.9,23.4,30.27,WSW,248,0.0,0.0,98,0.00,,CLR,0.00,VWS V14.01,2013-12-11 05:06:00,
2013-12-11 00:11:00,23.7,23.2,30.27,WSW,248,0.0,0.0,98,0.00,,CLR,0.00,VWS V14.01,2013-12-11 05:11:00,
2013-12-11 00:16:00,23.5,23.1,30.27,WSW,248,0.0,0.0,98,0.00,,CLR,0.00,VWS V14.01,2013-12-11 05:16:00,
2013-12-11 00:21:00,23.5,23.1,30.24,WSW,248,0.0,0.0,98,0.00,,CLR,0.00,VWS V14.01,2013-12-11 05:21:00,
2013-12-11 00:26:00,24.1,23.6,30.24,WSW,248,0.0,0.0,98,0.00,,CLR,0.00,VWS V14.01,2013-12-11 05:26:00,
2013-12-11 00:31:00,24.1,23.6,30.24,WSW,248,0.0,0.0,98,0.00,,CLR,0.00,VWS V14.01,2013-12-11 05:31:00,
2013-12-11 00:36:00,23.7,23.2,30.27,WSW,248,0.0,0.0,98,0.00,,CLR,0.00,VWS V14.01,2013-12-11 05:36:00,
2013-12-11 00:41:00,23.9,23.4,30.27,WSW,248,0.0,0.0,98,0.00,,CLR,0.00,VWS V14.01,2013-12-11 05:41:00,
2013-12-11 00:46:00,23.9,23.4,30.27,WSW,248,0.0,0.0,98,0.00,,CLR,0.00,VWS V14.01,2013-12-11 05:46:00,
2013-12-11 00:51:00,23.5,23.1,30.27,WSW,248,0.0,0.0,98,0.00,,CLR,0.00,VWS V14.01,2013-12-11 05:51:00,
2013-12-11 00:56:00,23.5,23.1,30.27,WSW,248,0.0,0.0,98,0.00,,CLR,0.00,VWS V14.01,2013-12-11 05:56:00,
2013-12-11 01:01:00,23.4,22.9,30.27,WSW,248,0.0,0.0,98,0.00,,CLR,0.00,VWS V14.01,2013-12-11 06:01:00,
2013-12-11 01:06:00,23.5,23.1,30.27,WSW,248,0.0,0.0,98,0.00,,CLR,0.00,VWS V14.01,2013-12-11 06:06:00,
2013-12-11 01:11:00,23.4,22.9,30.27,WSW,248,0.0,0.0,98,0.00,,CLR,0.00,VWS V14.01,2013-12-11 06:11:00,
2013-12-11 01:16:00,23.5,23.1,30.27,WSW,248,0.0,0.0,98,0.00,,CLR,0.00,VWS V14.01,2013-12-11 06:16:00,
2013-12-11 01:21:00,23.4,22.9,30.27,WSW,248,0.0,0.0,98,0.00,,CLR,0.00,VWS V14.01,2013-12-11 06:21:00,
2013-12-11 01:26:00,23.4,22.9,30.27,WSW,248,0.0,0.0,98,0.00,,CLR,0.00,VWS V14.01,2013-12-11 06:26:00,
2013-12-11 01:31:00,23.5,23.1,30.27,WSW,248,0.0,0.0,98,0.00,,CLR,0.00,VWS V14.01,2013-12-11 06:31:00,
2013-12-11 01:36:00,23.5,23.1,30.27,WSW,248,0.0,0.0,98,0.00,,CLR,0.00,VWS V14.01,2013-12-11 06:36:00,
2013-12-11 01:41:00,23.2,22.7,30.27,WSW,248,0.0,0.0,98,0.00,,CLR,0.00,VWS V14.01,2013-12-11 06:41:00,
2013-12-11 01:46:00,23.4,22.9,30.27,WSW,248,0.0,2.2,98,0.00,,CLR,0.00,VWS V14.01,2013-12-11 06:46:00,
2013-12-11 01:51:00,23.2,22.7,30.27,WSW,248,0.0,0.0,98,0.00,,CLR,0.00,VWS V14.01,2013-12-11 06:51:00,
2013-12-11 01:56:00,23.0,22.5,30.27,SSW,202,0.0,0.0,98,0.00,,CLR,0.00,VWS V14.01,2013-12-11 06:56:00,
2013-12-11 02:01:00,22.8,22.3,30.27,SSW,202,0.0,0.0,98,0.00,,CLR,0.00,VWS V14.01,2013-12-11 07:01:00,
2013-12-11 02:06:00,23.2,22.7,30.27,SSW,202,0.0,0.0,98,0.00,,CLR,0.00,VWS V14.01,2013-12-11 07:06:00,
2013-12-11 02:11:00,23.0,22.5,30.27,SSW,202,0.0,0.0,98,0.00,,CLR,0.00,VWS V14.01,2013-12-11 07:11:00,
2013-12-11 02:16:00,22.6,22.2,30.27,SSW,202,0.0,0.0,98,0.00,,CLR,0.00,VWS V14.01,2013-12-11 07:16:00,
2013-12-11 02:21:00,22.5,22.0,30.27,SSW,202,0.0,0.0,98,0.00,,CLR,0.00,VWS V14.01,2013-12-11 07:21:00,
2013-12-11 02:26:00,22.5,22.0,30.27,SSW,202,0.0,0.0,98,0.00,,CLR,0.00,VWS V14.01,2013-12-11 07:26:00,
2013-12-11 02:31:00,22.3,21.8,30.27,SSW,202,0.0,0.0,98,0.00,,CLR,0.00,VWS V14.01,2013-12-11 07:31:00,
2013-12-11 02:36:00,22.8,22.3,30.27,SSW,202,0.0,0.0,98,0.00,,CLR,0.00,VWS V14.01,2013-12-11 07:36:00,
2013-12-11 02:41:00,23.0,22.5,30.27,SSW,202,0.0,0.0,98,0.00,,CLR,0.00,VWS V14.01,2013-12-11 07:41:00,
2013-12-11 02:46:00,23.0,22.5,30.27,SSW,202,0.0,2.2,98,0.00,,CLR,0.00,VWS V14.01,2013-12-11 07:46:00,
2013-12-11 02:51:00,23.0,22.5,30.27,SSW,202,0.0,0.0,98,0.00,,CLR,0.00,VWS V14.01,2013-12-11 07:51:00,
2013-12-11 02:56:00,23.2,22.7,30.27,SSW,202,0.0,0.0,98,0.00,,CLR,0.00,VWS V14.01,2013-12-11 07:56:00,
2013-12-11 03:01:00,22.8,22.3,30.27,SSW,202,0.0,0.0,98,0.00,,CLR,0.00,VWS V14.01,2013-12-11 08:01:00,
2013-12-11 03:06:00,22.6,22.2,30.27,SSW,202,0.0,0.0,98,0.00,,CLR,0.00,VWS V14.01,2013-12-11 08:06:00,
2013-12-11 03:11:00,22.3,21.8,30.27,SSW,202,0.0,0.0,98,0.00,,CLR,0.00,VWS V14.01,2013-12-11 08:11:00,
2013-12-11 03:16:00,22.5,22.0,30.27,SSW,202,2.7,2.7,98,0.00,,CLR,0.00,VWS V14.01,2013-12-11 08:16:00,
2013-12-11 03:21:00,22.8,22.3,30.30,SSW,202,2.2,2.2,98,0.00,,CLR,0.00,VWS V14.01,2013-12-11 08:21:00,
2013-12-11 03:26:00,23.0,22.5,30.30,SSW,202,0.0,0.0,98,0.00,,CLR,0.00,VWS V14.01,2013-12-11 08:26:00,
2013-12-11 03:31:00,23.2,22.7,30.30,SSW,202,0.0,0.0,98,0.00,,CLR,0.00,VWS V14.01,2013-12-11 08:31:00,
2013-12-11 03:36:00,23.0,22.5,30.30,SSW,202,0.0,0.0,98,0.00,,CLR,0.00,VWS V14.01,2013-12-11 08:36:00,
2013-12-11 03:41:00,23.2,22.7,30.30,SSW,202,2.2,2.2,98,0.00,,CLR,0.00,VWS V14.01,2013-12-11 08:41:00,
2013-12-11 03:46:00,23.0,22.5,30.30,SSW,202,0.0,0.0,98,0.00,,CLR,0.00,VWS V14.01,2013-12-11 08:46:00,
2013-12-11 03:51:00,22.8,22.3,30.30,SSW,202,0.0,0.0,98,0.00,,CLR,0.00,VWS V14.01,2013-12-11 08:51:00,
2013-12-11 03:56:00,22.8,22.3,30.30,SSW,202,0.0,0.0,98,0.00,,CLR,0.00,VWS V14.01,2013-12-11 08:56:00,
2013-12-11 04:01:00,22.5,22.0,30.30,SSW,202,0.0,0.0,98,0.00,,CLR,0.00,VWS V14.01,2013-12-11 09:01:00,
2013-12-11 04:06:00,22.1,21.6,30.30,SSW,202,0.0,0.0,98,0.00,,CLR,0.00,VWS V14.01,2013-12-11 09:06:00,
2013-12-11 04:11:00,22.1,21.6,30.30,SSW,202,0.0,0.0,98,0.00,,CLR,0.00,VWS V14.01,2013-12-11 09:11:00,
2013-12-11 04:16:00,21.9,21.4,30.30,SSW,202,0.0,0.0,98,0.00,,CLR,0.00,VWS V14.01,2013-12-11 09:16:00,
2013-12-11 04:21:00,21.6,21.1,30.30,SSW,202,0.0,0.0,98,0.00,,CLR,0.00,VWS V14.01,2013-12-11 09:21:00,
2013-12-11 04:26:00,21.2,20.7,30.30,SSW,202,0.0,0.0,98,0.00,,CLR,0.00,VWS V14.01,2013-12-11 09:26:00,
2013-12-11 04:31:00,21.0,20.5,30.30,SSW,202,0.0,0.0,98,0.00,,CLR,0.00,VWS V14.01,2013-12-11 09:31:00,
2013-12-11 04:36:00,20.8,20.4,30.30,SSW,202,0.0,0.0,98,0.00,,CLR,0.00,VWS V14.01,2013-12-11 09:36:00,
2013-12-11 04:41:00,20.8,20.4,30.30,SSW,202,0.0,0.0,98,0.00,,CLR,0.00,VWS V14.01,2013-12-11 09:41:00,
2013-12-11 04:46:00,20.5,20.0,30.30,SSW,202,0.0,0.0,98,0.00,,CLR,0.00,VWS V14.01,2013-12-11 09:46:00,
2013-12-11 04:51:00,20.3,19.8,30.30,SSW,202,0.0,0.0,98,0.00,,CLR,0.00,VWS V14.01,2013-12-11 09:51:00,
2013-12-11 04:56:00,20.5,20.0,30.30,SSW,202,0.0,0.0,98,0.00,,CLR,0.00,VWS V14.01,2013-12-11 09:56:00,
2013-12-11 05:01:00,21.2,20.7,30.30,SSW,202,2.7,2.7,98,0.00,,CLR,0.00,VWS V14.01,2013-12-11 10:01:00,
2013-12-11 05:06:00,21.6,21.1,30.30,SSW,202,2.2,2.2,98,0.00,,CLR,0.00,VWS V14.01,2013-12-11 10:06:00,
2013-12-11 05:11:00,21.4,20.9,30.30,SSW,202,0.0,0.0,98,0.00,,CLR,0.00,VWS V14.01,2013-12-11 10:11:00,
2013-12-11 05:16:00,21.6,21.1,30.33,SSW,202,0.0,0.0,98,0.00,,CLR,0.00,VWS V14.01,2013-12-11 10:16:00,
2013-12-11 05:21:00,21.6,21.1,30.33,SSW,202,0.0,0.0,98,0.00,,CLR,0.00,VWS V14.01,2013-12-11 10:21:00,
2013-12-11 05:26:00,21.9,21.4,30.33,SSW,202,0.0,0.0,98,0.00,,CLR,0.00,VWS V14.01,2013-12-11 10:26:00,
2013-12-11 05:31:00,21.9,21.4,30.30,SSW,202,0.0,0.0,98,0.00,,CLR,0.00,VWS V14.01,2013-12-11 10:31:00,
2013-12-11 05:36:00,21.9,21.4,30.30,SSW,202,0.0,0.0,98,0.00,,CLR,0.00,VWS V14.01,2013-12-11 10:36:00,
2013-12-11 05:41:00,21.9,21.4,30.30,SSW,202,0.0,0.0,98,0.00,,CLR,0.00,VWS V14.01,2013-12-11 10:41:00,
2013-12-11 05:46:00,21.9,21.4,30.33,SSW,202,0.0,0.0,98,0.00,,CLR,0.00,VWS V14.01,2013-12-11 10:46:00,
2013-12-11 05:51:00,21.7,21.3,30.33,SSW,202,0.0,0.0,98,0.00,,CLR,0.00,VWS V14.01,2013-12-11 10:51:00,
2013-12-11 05:56:00,21.9,21.4,30.33,SSW,202,0.0,0.0,98,0.00,,CLR,0.00,VWS V14.01,2013-12-11 10:56:00,
2013-12-11 06:01:00,21.4,20.9,30.33,SSW,202,0.0,0.0,98,0.00,,CLR,0.00,VWS V14.01,2013-12-11 11:01:00,
2013-12-11 06:06:00,21.2,20.7,30.30,SSW,202,0.0,0.0,98,0.00,,CLR,0.00,VWS V14.01,2013-12-11 11:06:00,
2013-12-11 06:11:00,21.0,20.5,30.30,SSW,202,0.0,0.0,98,0.00,,CLR,0.00,VWS V14.01,2013-12-11 11:11:00,
2013-12-11 06:16:00,20.8,20.4,30.33,SSW,202,0.0,0.0,98,0.00,,CLR,0.00,VWS V14.01,2013-12-11 11:16:00,
2013-12-11 06:21:00,20.7,20.2,30.33,SSW,202,0.0,0.0,98,0.00,,CLR,0.00,VWS V14.01,2013-12-11 11:21:00,
2013-12-11 06:26:00,20.5,20.0,30.33,SSW,202,0.0,0.0,98,0.00,,CLR,0.00,VWS V14.01,2013-12-11 11:26:00,
2013-12-11 06:31:00,20.5,20.0,30.33,SSW,202,0.0,0.0,98,0.00,,CLR,0.00,VWS V14.01,2013-12-11 11:31:00,
2013-12-11 06:36:00,20.3,19.8,30.33,SSW,202,0.0,0.0,98,0.00,,CLR,0.00,VWS V14.01,2013-12-11 11:36:00,
2013-12-11 06:41:00,19.9,19.5,30.33,SSW,202,0.0,0.0,98,0.00,,CLR,0.00,VWS V14.01,2013-12-11 11:41:00,
2013-12-11 06:46:00,20.1,19.6,30.33,SSW,202,0.0,0.0,98,0.00,,CLR,0.00,VWS V14.01,2013-12-11 11:46:00,
2013-12-11 06:51:00,19.9,19.5,30.33,SSW,202,0.0,0.0,98,0.00,,CLR,0.00,VWS V14.01,2013-12-11 11:51:00,
2013-12-11 06:56:00,19.8,19.3,30.33,SSW,202,0.0,0.0,98,0.00,,CLR,0.00,VWS V14.01,2013-12-11 11:56:00,
2013-12-11 07:01:00,19.6,19.1,30.33,SSW,202,0.0,0.0,98,0.00,,CLR,0.00,VWS V14.01,2013-12-11 12:01:00,
2013-12-11 07:06:00,19.6,19.1,30.33,SSW,202,0.0,0.0,98,0.00,,CLR,0.00,VWS V14.01,2013-12-11 12:06:00,
2013-12-11 07:11:00,19.6,19.1,30.33,SSW,202,0.0,0.0,98,0.00,,CLR,0.00,VWS V14.01,2013-12-11 12:11:00,
2013-12-11 07:16:00,19.8,19.3,30.33,SSW,202,0.0,0.0,98,0.00,,CLR,0.00,VWS V14.01,2013-12-11 12:16:00,
2013-12-11 07:21:00,19.6,19.1,30.33,SSW,202,0.0,0.0,98,0.00,,CLR,0.00,VWS V14.01,2013-12-11 12:21:00,
2013-12-11 07:26:00,19.6,19.1,30.33,SSW,202,0.0,0.0,98,0.00,,CLR,0.00,VWS V14.01,2013-12-11 12:26:00,
2013-12-11 07:31:00,19.4,18.9,30.33,SSW,202,0.0,0.0,98,0.00,,CLR,0.00,VWS V14.01,2013-12-11 12:31:00,
2013-12-11 07:36:00,19.9,19.5,30.33,SSW,202,0.0,0.0,98,0.00,,CLR,0.00,VWS V14.01,2013-12-11 12:36:00,
2013-12-11 07:41:00,19.9,19.5,30.33,SSW,202,0.0,0.0,98,0.00,,CLR,0.00,VWS V14.01,2013-12-11 12:41:00,
2013-12-11 07:46:00,19.6,19.1,30.33,SSW,202,0.0,0.0,98,0.00,,CLR,0.00,VWS V14.01,2013-12-11 12:46:00,
2013-12-11 07:51:00,19.6,19.1,30.33,SSW,202,0.0,0.0,98,0.00,,CLR,0.00,VWS V14.01,2013-12-11 12:51:00,
2013-12-11 07:56:00,19.6,19.1,30.33,SSW,202,0.0,0.0,98,0.00,,CLR,0.00,VWS V14.01,2013-12-11 12:56:00,
2013-12-11 08:01:00,19.6,19.1,30.33,SSW,202,0.0,0.0,98,0.00,,CLR,0.00,VWS V14.01,2013-12-11 13:01:00,
2013-12-11 08:06:00,20.3,19.8,30.33,SSW,202,0.0,0.0,98,0.00,,CLR,0.00,VWS V14.01,2013-12-11 13:06:00,
2013-12-11 08:11:00,20.5,20.0,30.33,SSW,202,0.0,0.0,98,0.00,,CLR,0.00,VWS V14.01,2013-12-11 13:11:00,
2013-12-11 08:16:00,20.8,20.4,30.36,SSW,202,0.0,0.0,98,0.00,,CLR,0.00,VWS V14.01,2013-12-11 13:16:00,
2013-12-11 08:21:00,21.6,21.1,30.36,SSW,202,0.0,0.0,98,0.00,,CLR,0.00,VWS V14.01,2013-12-11 13:21:00,
2013-12-11 08:26:00,22.1,21.6,30.36,SSW,202,0.0,0.0,98,0.00,,CLR,0.00,VWS V14.01,2013-12-11 13:26:00,
2013-12-11 08:31:00,22.8,22.3,30.36,SSW,202,0.0,0.0,98,0.00,,CLR,0.00,VWS V14.01,2013-12-11 13:31:00,
2013-12-11 08:36:00,23.2,22.7,30.36,SSW,202,0.0,0.0,98,0.00,,CLR,0.00,VWS V14.01,2013-12-11 13:36:00,
2013-12-11 08:41:00,24.3,23.8,30.36,SSW,202,0.0,0.0,98,0.00,,CLR,0.00,VWS V14.01,2013-12-11 13:41:00,
2013-12-11 08:46:00,25.3,24.9,30.36,SSW,202,0.0,0.0,98,0.00,,CLR,0.00,VWS V14.01,2013-12-11 13:46:00,
2013-12-11 08:51:00,26.2,25.8,30.36,SSW,202,0.0,0.0,98,0.00,,CLR,0.00,VWS V14.01,2013-12-11 13:51:00,
2013-12-11 08:56:00,27.3,26.8,30.36,SSW,202,0.0,0.0,98,0.00,,CLR,0.00,VWS V14.01,2013-12-11 13:56:00,
2013-12-11 09:01:00,28.2,27.7,30.36,SSW,202,0.0,0.0,98,0.00,,CLR,0.00,VWS V14.01,2013-12-11 14:01:00,
2013-12-11 09:06:00,28.6,28.1,30.36,SSW,202,0.0,0.0,98,0.00,,CLR,0.00,VWS V14.01,2013-12-11 14:06:00,
2013-12-11 09:11:00,29.1,28.6,30.36,SSW,202,0.0,0.0,98,0.00,,CLR,0.00,VWS V14.01,2013-12-11 14:11:00,
2013-12-11 09:16:00,29.1,28.6,30.36,SSW,202,0.0,0.0,98,0.00,,CLR,0.00,VWS V14.01,2013-12-11 14:16:00,
2013-12-11 09:21:00,29.5,29.0,30.36,SSW,202,0.0,0.0,98,0.00,,CLR,0.00,VWS V14.01,2013-12-11 14:21:00,
2013-12-11 09:26:00,30.4,29.6,30.36,SSW,202,0.0,0.0,97,0.00,,CLR,0.00,VWS V14.01,2013-12-11 14:26:00,
2013-12-11 09:31:00,32.7,31.7,30.36,SSW,202,0.0,0.0,96,0.00,,CLR,0.00,VWS V14.01,2013-12-11 14:31:00,
2013-12-11 09:36:00,34.0,32.4,30.36,SSW,202,0.0,0.0,94,0.00,,CLR,0.00,VWS V14.01,2013-12-11 14:36:00,
2013-12-11 09:41:00,34.9,32.2,30.36,SSW,202,0.0,0.0,90,0.00,,CLR,0.00,VWS V14.01,2013-12-11 14:41:00,
2013-12-11 09:46:00,37.0,29.5,30.36,SSW,202,2.2,2.2,74,0.00,,CLR,0.00,VWS V14.01,2013-12-11 14:46:00,
2013-12-11 09:51:00,37.2,25.0,30.36,WNW,292,2.7,3.1,61,0.00,,CLR,0.00,VWS V14.01,2013-12-11 14:51:00,
2013-12-11 09:56:00,39.0,19.0,30.36,SSW,202,2.7,2.7,44,0.00,,CLR,0.00,VWS V14.01,2013-12-11 14:56:00,
2013-12-11 10:01:00,40.3,17.9,30.36,SSW,202,0.0,0.0,40,0.00,,CLR,0.00,VWS V14.01,2013-12-11 15:01:00,
2013-12-11 10:06:00,40.5,16.3,30.36,SW,225,2.2,2.7,37,0.00,,CLR,0.00,VWS V14.01,2013-12-11 15:06:00,
2013-12-11 10:11:00,41.0,16.1,30.36,South,180,3.1,4.0,36,0.00,,CLR,0.00,VWS V14.01,2013-12-11 15:11:00,
2013-12-11 10:16:00,41.4,13.7,30.36,SW,225,3.6,3.6,32,0.00,,CLR,0.00,VWS V14.01,2013-12-11 15:16:00,
2013-12-11 10:21:00,41.5,13.2,30.36,WSW,248,0.0,2.7,31,0.00,,CLR,0.00,VWS V14.01,2013-12-11 15:21:00,
2013-12-11 10:26:00,41.7,11.8,30.36,WNW,292,0.0,0.0,29,0.00,,CLR,0.00,VWS V14.01,2013-12-11 15:26:00,
2013-12-11 10:31:00,42.3,12.3,30.39,WNW,292,2.2,3.1,29,0.00,,CLR,0.00,VWS V14.01,2013-12-11 15:31:00,
2013-12-11 10:36:00,42.1,12.1,30.39,WSW,248,2.2,2.7,29,0.00,,CLR,0.00,VWS V14.01,2013-12-11 15:36:00,
2013-12-11 10:42:00,42.4,11.7,30.39,SW,225,3.1,3.1,28,0.00,,CLR,0.00,VWS V14.01,2013-12-11 15:42:00,
2013-12-11 10:47:00,42.6,11.8,30.36,SSE,158,0.0,3.1,28,0.00,,CLR,0.00,VWS V14.01,2013-12-11 15:47:00,
2013-12-11 10:52:00,42.6,11.8,30.36,South,180,0.0,2.7,28,0.00,,CLR,0.00,VWS V14.01,2013-12-11 15:52:00,
2013-12-11 10:57:00,42.4,12.4,30.36,SW,225,4.0,4.0,29,0.00,,CLR,0.00,VWS V14.01,2013-12-11 15:57:00,
2013-12-11 11:02:00,42.8,12.0,30.36,SSW,202,0.0,2.2,28,0.00,,CLR,0.00,VWS V14.01,2013-12-11 16:02:00,
2013-12-11 11:07:00,43.2,12.3,30.36,WSW,248,3.6,4.0,28,0.00,,CLR,0.00,VWS V14.01,2013-12-11 16:07:00,
2013-12-11 11:12:00,43.0,12.9,30.36,South,180,3.1,4.9,29,0.00,,CLR,0.00,VWS V14.01,2013-12-11 16:12:00,
2013-12-11 11:17:00,43.5,13.4,30.36,SSW,202,3.6,4.0,29,0.00,,CLR,0.00,VWS V14.01,2013-12-11 16:17:00,
2013-12-11 11:22:00,44.1,13.1,30.36,SW,225,5.4,5.4,28,0.00,,CLR,0.00,VWS V14.01,2013-12-11 16:22:00,
2013-12-11 11:27:00,44.1,13.1,30.36,SSW,202,4.0,4.0,28,0.00,,CLR,0.00,VWS V14.01,2013-12-11 16:27:00,
2013-12-11 11:32:00,44.8,11.1,30.36,South,180,2.2,4.0,25,0.00,,CLR,0.00,VWS V14.01,2013-12-11 16:32:00,
2013-12-11 11:37:00,46.2,12.4,30.36,WSW,248,4.0,4.0,25,0.00,,CLR,0.00,VWS V14.01,2013-12-11 16:37:00,
2013-12-11 11:42:00,46.0,12.2,30.36,SSW,202,3.1,3.1,25,0.00,,CLR,0.00,VWS V14.01,2013-12-11 16:42:00,
2013-12-11 11:47:00,46.6,11.7,30.33,SSW,202,3.6,3.6,24,0.00,,CLR,0.00,VWS V14.01,2013-12-11 16:47:00,
2013-12-11 11:52:00,46.9,12.1,30.33,SSE,158,4.0,5.8,24,0.00,,CLR,0.00,VWS V14.01,2013-12-11 16:52:00,
2013-12-11 11:57:00,47.1,12.2,30.33,WNW,292,3.1,3.1,24,0.00,,CLR,0.00,VWS V14.01,2013-12-11 16:57:00,
2013-12-11 12:02:00,48.6,13.4,30.33,SSW,202,3.1,4.0,24,0.00,,CLR,0.00,VWS V14.01,2013-12-11 17:02:00,
2013-12-11 12:07:00,47.3,12.4,30.33,SSE,158,2.2,3.6,24,0.00,,CLR,0.00,VWS V14.01,2013-12-11 17:07:00,
2013-12-11 12:12:00,49.3,14.0,30.33,SSE,158,2.7,7.2,24,0.00,,CLR,0.00,VWS V14.01,2013-12-11 17:12:00,
2013-12-11 12:17:00,48.6,13.4,30.33,SSE,158,2.2,4.0,24,0.00,,CLR,0.00,VWS V14.01,2013-12-11 17:17:00,
2013-12-11 12:22:00,48.9,13.7,30.33,ESE,112,3.6,3.6,24,0.00,,CLR,0.00,VWS V14.01,2013-12-11 17:22:00,
2013-12-11 12:27:00,48.2,13.1,30.33,SSW,202,3.6,4.9,24,0.00,,CLR,0.00,VWS V14.01,2013-12-11 17:27:00,
2013-12-11 12:32:00,49.3,14.0,30.30,SSE,158,3.1,4.0,24,0.00,,CLR,0.00,VWS V14.01,2013-12-11 17:32:00,
2013-12-11 12:37:00,47.8,12.8,30.30,South,180,2.7,2.7,24,0.00,,CLR,0.00,VWS V14.01,2013-12-11 17:37:00,
2013-12-11 12:42:00,48.7,13.6,30.30,South,180,3.6,3.6,24,0.00,,CLR,0.00,VWS V14.01,2013-12-11 17:42:00,
2013-12-11 12:47:00,48.6,13.4,30.30,SSE,158,2.2,3.6,24,0.00,,CLR,0.00,VWS V14.01,2013-12-11 17:47:00,
2013-12-11 12:52:00,49.1,10.9,30.30,SSE,158,2.2,4.0,21,0.00,,CLR,0.00,VWS V14.01,2013-12-11 17:52:00,
2013-12-11 12:57:00,49.5,11.2,30.30,SW,225,2.7,3.1,21,0.00,,CLR,0.00,VWS V14.01,2013-12-11 17:57:00,
2013-12-11 13:02:00,49.1,10.9,30.30,SW,225,4.5,4.9,21,0.00,,CLR,0.00,VWS V14.01,2013-12-11 18:02:00,
2013-12-11 13:07:00,49.3,11.0,30.30,SSE,158,5.4,6.3,21,0.00,,CLR,0.00,VWS V14.01,2013-12-11 18:07:00,
2013-12-11 13:12:00,49.6,11.3,30.30,SSW,202,5.8,8.1,21,0.00,,CLR,0.00,VWS V14.01,2013-12-11 18:12:00,
2013-12-11 13:17:00,50.0,11.6,30.27,WSW,248,2.2,3.1,21,0.00,,CLR,0.00,VWS V14.01,2013-12-11 18:17:00,
2013-12-11 13:22:00,51.6,13.0,30.27,ESE,112,4.0,4.0,21,0.00,,CLR,0.00,VWS V14.01,2013-12-11 18:22:00,
2013-12-11 13:27:00,51.3,12.7,30.27,SSE,158,5.4,5.4,21,0.00,,CLR,0.00,VWS V14.01,2013-12-11 18:27:00,
2013-12-11 13:32:00,50.9,12.4,30.27,SW,225,2.7,4.0,21,0.00,,CLR,0.00,VWS V14.01,2013-12-11 18:32:00,
2013-12-11 13:37:00,51.3,12.7,30.27,SW,225,2.2,3.6,21,0.00,,CLR,0.00,VWS V14.01,2013-12-11 18:37:00,
2013-12-11 13:42:00,52.7,13.9,30.27,SW,225,2.2,2.2,21,0.00,,CLR,0.00,VWS V14.01,2013-12-11 18:42:00,
2013-12-11 13:47:00,51.6,13.0,30.27,WSW,248,3.1,5.8,21,0.00,,CLR,0.00,VWS V14.01,2013-12-11 18:47:00,
2013-12-11 13:52:00,51.3,12.7,30.24,WSW,248,3.1,4.0,21,0.00,,CLR,0.00,VWS V14.01,2013-12-11 18:52:00,
2013-12-11 13:57:00,52.0,13.3,30.24,SSW,202,2.7,5.8,21,0.00,,CLR,0.00,VWS V14.01,2013-12-11 18:57:00,
2013-12-11 14:02:00,51.3,12.7,30.24,SSE,158,4.0,4.0,21,0.00,,CLR,0.00,VWS V14.01,2013-12-11 19:02:00,
2013-12-11 14:07:00,51.3,12.7,30.24,SSW,202,2.2,2.2,21,0.00,,CLR,0.00,VWS V14.01,2013-12-11 19:07:00,
2013-12-11 14:12:00,53.1,14.2,30.24,SSW,202,4.0,4.0,21,0.00,,CLR,0.00,VWS V14.01,2013-12-11 19:12:00,
2013-12-11 14:17:00,52.7,13.9,30.24,SSE,158,2.7,3.1,21,0.00,,CLR,0.00,VWS V14.01,2013-12-11 19:17:00,
2013-12-11 14:22:00,53.4,14.5,30.24,WSW,248,3.6,3.6,21,0.00,,CLR,0.00,VWS V14.01,2013-12-11 19:22:00,
2013-12-11 14:27:00,53.2,14.3,30.24,SSW,202,3.6,3.6,21,0.00,,CLR,0.00,VWS V14.01,2013-12-11 19:27:00,
2013-12-11 14:32:00,52.5,13.7,30.24,SSE,158,4.5,4.5,21,0.00,,CLR,0.00,VWS V14.01,2013-12-11 19:32:00,
2013-12-11 14:37:00,52.3,13.6,30.24,South,180,0.0,4.0,21,0.00,,CLR,0.00,VWS V14.01,2013-12-11 19:37:00,
2013-12-11 14:42:00,53.2,10.9,30.24,SSE,158,2.7,3.1,18,0.00,,CLR,0.00,VWS V14.01,2013-12-11 19:42:00,
2013-12-11 14:47:00,52.9,10.6,30.24,South,180,3.6,4.9,18,0.00,,CLR,0.00,VWS V14.01,2013-12-11 19:47:00,
2013-12-11 14:52:00,53.2,10.9,30.24,South,180,0.0,0.0,18,0.00,,CLR,0.00,VWS V14.01,2013-12-11 19:52:00,
2013-12-11 14:57:00,53.6,11.1,30.24,South,180,4.9,4.9,18,0.00,,CLR,0.00,VWS V14.01,2013-12-11 19:57:00,
2013-12-11 15:02:00,52.9,10.6,30.24,SSW,202,3.6,4.0,18,0.00,,CLR,0.00,VWS V14.01,2013-12-11 20:02:00,
2013-12-11 15:07:00,52.7,10.4,30.24,WSW,248,0.0,2.2,18,0.00,,CLR,0.00,VWS V14.01,2013-12-11 20:07:00,
2013-12-11 15:12:00,53.1,10.7,30.24,South,180,0.0,2.7,18,0.00,,CLR,0.00,VWS V14.01,2013-12-11 20:12:00,
2013-12-11 15:17:00,52.2,10.0,30.24,South,180,0.0,2.2,18,0.00,,CLR,0.00,VWS V14.01,2013-12-11 20:17:00,
2013-12-11 15:22:00,51.8,9.7,30.24,South,180,2.2,3.1,18,0.00,,CLR,0.00,VWS V14.01,2013-12-11 20:22:00,
2013-12-11 15:27:00,50.7,10.0,30.24,South,180,2.2,3.1,19,0.00,,CLR,0.00,VWS V14.01,2013-12-11 20:27:00,
2013-12-11 15:32:00,50.2,11.8,30.24,SSE,158,3.6,3.6,21,0.00,,CLR,0.00,VWS V14.01,2013-12-11 20:32:00,
2013-12-11 15:37:00,50.2,11.8,30.21,SSW,202,0.0,0.0,21,0.00,,CLR,0.00,VWS V14.01,2013-12-11 20:37:00,
2013-12-11 15:42:00,50.2,11.8,30.21,SSE,158,3.1,4.5,21,0.00,,CLR,0.00,VWS V14.01,2013-12-11 20:42:00,
2013-12-11 15:47:00,49.8,11.5,30.21,SSW,202,2.7,3.6,21,0.00,,CLR,0.00,VWS V14.01,2013-12-11 20:47:00,
2013-12-11 15:52:00,49.8,11.5,30.21,SSE,158,2.7,2.7,21,0.00,,CLR,0.00,VWS V14.01,2013-12-11 20:52:00,
2013-12-11 15:57:00,50.0,11.6,30.21,SSE,158,4.0,4.0,21,0.00,,CLR,0.00,VWS V14.01,2013-12-11 20:57:00,
2013-12-11 16:02:00,50.0,11.6,30.24,SSE,158,3.1,3.1,21,0.00,,CLR,0.00,VWS V14.01,2013-12-11 21:02:00,
2013-12-11 16:07:00,49.5,14.2,30.24,SSE,158,3.6,4.9,24,0.00,,CLR,0.00,VWS V14.01,2013-12-11 21:07:00,
2013-12-11 16:12:00,48.9,13.7,30.24,South,180,4.0,4.0,24,0.00,,CLR,0.00,VWS V14.01,2013-12-11 21:12:00,
2013-12-11 16:17:00,48.9,13.7,30.24,SSW,202,3.1,4.0,24,0.00,,CLR,0.00,VWS V14.01,2013-12-11 21:17:00,
2013-12-11 16:22:00,48.7,15.4,30.24,South,180,0.0,0.0,26,0.00,,CLR,0.00,VWS V14.01,2013-12-11 21:22:00,
2013-12-11 16:27:00,48.7,15.4,30.24,South,180,3.1,3.1,26,0.00,,CLR,0.00,VWS V14.01,2013-12-11 21:27:00,
2013-12-11 16:32:00,49.3,14.0,30.24,SSE,158,3.6,3.6,24,0.00,,CLR,0.00,VWS V14.01,2013-12-11 21:32:00,
2013-12-11 16:37:00,49.1,13.9,30.24,SSE,158,3.1,3.1,24,0.00,,CLR,0.00,VWS V14.01,2013-12-11 21:37:00,
2013-12-11 16:42:00,49.1,13.9,30.24,SSE,158,0.0,0.0,24,0.00,,CLR,0.00,VWS V14.01,2013-12-11 21:42:00,
2013-12-11 16:47:00,48.0,15.6,30.24,South,180,4.0,4.0,27,0.00,,CLR,0.00,VWS V14.01,2013-12-11 21:47:00,
2013-12-11 16:52:00,48.0,15.6,30.24,SSE,158,2.2,2.7,27,0.00,,CLR,0.00,VWS V14.01,2013-12-11 21:52:00,
2013-12-11 16:57:00,46.6,15.2,30.24,SSE,158,0.0,0.0,28,0.00,,CLR,0.00,VWS V14.01,2013-12-11 21:57:00,
2013-12-11 17:02:00,46.2,14.9,30.24,SSE,158,0.0,0.0,28,0.00,,CLR,0.00,VWS V14.01,2013-12-11 22:02:00,
2013-12-11 17:07:00,45.5,15.1,30.24,SSE,158,0.0,0.0,29,0.00,,CLR,0.00,VWS V14.01,2013-12-11 22:07:00,
2013-12-11 17:12:00,45.5,15.1,30.24,SSE,158,0.0,0.0,29,0.00,,CLR,0.00,VWS V14.01,2013-12-11 22:12:00,
2013-12-11 17:17:00,44.4,15.7,30.24,SSE,158,0.0,0.0,31,0.00,,CLR,0.00,VWS V14.01,2013-12-11 22:17:00,
2013-12-11 17:22:00,44.1,15.4,30.24,SSE,158,0.0,0.0,31,0.00,,CLR,0.00,VWS V14.01,2013-12-11 22:22:00,
2013-12-11 17:27:00,44.1,15.4,30.24,SSE,158,0.0,0.0,31,0.00,,CLR,0.00,VWS V14.01,2013-12-11 22:27:00,
2013-12-11 17:32:00,42.8,16.4,30.24,SSE,158,0.0,0.0,34,0.00,,CLR,0.00,VWS V14.01,2013-12-11 22:32:00,
2013-12-11 17:37:00,41.9,17.5,30.24,SSE,158,0.0,0.0,37,0.00,,CLR,0.00,VWS V14.01,2013-12-11 22:37:00,
2013-12-11 17:42:00,41.9,17.5,30.24,SSE,158,0.0,0.0,37,0.00,,CLR,0.00,VWS V14.01,2013-12-11 22:42:00,
2013-12-11 17:47:00,41.5,17.8,30.24,SSE,158,0.0,0.0,38,0.00,,CLR,0.00,VWS V14.01,2013-12-11 22:47:00,
2013-12-11 17:52:00,41.7,18.0,30.24,SSE,158,0.0,0.0,38,0.00,,CLR,0.00,VWS V14.01,2013-12-11 22:52:00,
2013-12-11 17:57:00,40.8,18.4,30.24,SSE,158,0.0,0.0,40,0.00,,CLR,0.00,VWS V14.01,2013-12-11 22:57:00,
2013-12-11 18:02:00,40.6,18.8,30.24,SSE,158,0.0,0.0,41,0.00,,CLR,0.00,VWS V14.01,2013-12-11 23:02:00,
2013-12-11 18:07:00,39.9,18.7,30.24,SSE,158,0.0,0.0,42,0.00,,CLR,0.00,VWS V14.01,2013-12-11 23:07:00,
2013-12-11 18:12:00,39.9,18.7,30.24,SSE,158,0.0,0.0,42,0.00,,CLR,0.00,VWS V14.01,2013-12-11 23:12:00,
2013-12-11 18:17:00,39.7,18.0,30.24,SSE,158,0.0,0.0,41,0.00,,CLR,0.00,VWS V14.01,2013-12-11 23:17:00,
2013-12-11 18:22:00,39.6,18.4,30.24,SSE,158,0.0,0.0,42,0.00,,CLR,0.00,VWS V14.01,2013-12-11 23:22:00,
2013-12-11 18:27:00,39.6,18.4,30.24,SSE,158,0.0,0.0,42,0.00,,CLR,0.00,VWS V14.01,2013-12-11 23:27:00,
2013-12-11 18:32:00,39.4,17.7,30.24,SSE,158,0.0,0.0,41,0.00,,CLR,0.00,VWS V14.01,2013-12-11 23:32:00,
2013-12-11 18:37:00,39.0,18.4,30.24,SSE,158,0.0,0.0,43,0.00,,CLR,0.00,VWS V14.01,2013-12-11 23:37:00,
2013-12-11 18:42:00,38.8,18.8,30.24,SSE,158,0.0,0.0,44,0.00,,CLR,0.00,VWS V14.01,2013-12-11 23:42:00,
2013-12-11 18:47:00,38.3,18.3,30.24,SSE,158,0.0,0.0,44,0.00,,CLR,0.00,VWS V14.01,2013-12-11 23:47:00,
2013-12-11 18:52:00,38.1,18.7,30.24,SSE,158,0.0,0.0,45,0.00,,CLR,0.00,VWS V14.01,2013-12-11 23:52:00,
2013-12-11 18:57:00,38.1,18.7,30.24,SSE,158,0.0,0.0,45,0.00,,CLR,0.00,VWS V14.01,2013-12-11 23:57:00,
2013-12-11 19:02:00,37.9,20.0,30.24,SSE,158,0.0,0.0,48,0.00,,CLR,0.00,VWS V14.01,2013-12-12 00:02:00,
2013-12-11 19:07:00,37.6,20.6,30.24,SSE,158,0.0,0.0,50,0.00,,CLR,0.00,VWS V14.01,2013-12-12 00:07:00,
2013-12-11 19:12:00,37.2,20.8,30.24,SSE,158,0.0,0.0,51,0.00,,CLR,0.00,VWS V14.01,2013-12-12 00:12:00,
2013-12-11 19:17:00,37.2,21.7,30.27,SSE,158,0.0,0.0,53,0.00,,CLR,0.00,VWS V14.01,2013-12-12 00:17:00,
2013-12-11 19:22:00,37.0,21.5,30.27,SSE,158,0.0,0.0,53,0.00,,CLR,0.00,VWS V14.01,2013-12-12 00:22:00,
2013-12-11 19:27:00,36.9,21.3,30.27,SSE,158,0.0,0.0,53,0.00,,CLR,0.00,VWS V14.01,2013-12-12 00:27:00,
2013-12-11 19:32:00,36.7,21.6,30.27,SSE,158,0.0,0.0,54,0.00,,CLR,0.00,VWS V14.01,2013-12-12 00:32:00,
2013-12-11 19:37:00,36.1,21.5,30.27,SSE,158,0.0,0.0,55,0.00,,CLR,0.00,VWS V14.01,2013-12-12 00:37:00,
2013-12-11 19:42:00,35.8,22.5,30.27,SSE,158,0.0,0.0,58,0.00,,CLR,0.00,VWS V14.01,2013-12-12 00:42:00,
2013-12-11 19:47:00,35.4,22.9,30.24,SSE,158,0.0,0.0,60,0.00,,CLR,0.00,VWS V14.01,2013-12-12 00:47:00,
2013-12-11 19:52:00,34.9,23.2,30.24,SSE,158,0.0,0.0,62,0.00,,CLR,0.00,VWS V14.01,2013-12-12 00:52:00,
2013-12-11 19:57:00,34.5,23.6,30.24,SSE,158,0.0,0.0,64,0.00,,CLR,0.00,VWS V14.01,2013-12-12 00:57:00,
2013-12-11 20:02:00,34.3,24.5,30.24,SSE,158,0.0,0.0,67,0.00,,CLR,0.00,VWS V14.01,2013-12-12 01:02:00,
2013-12-11 20:07:00,33.8,25.1,30.24,SSE,158,0.0,0.0,70,0.00,,CLR,0.00,VWS V14.01,2013-12-12 01:07:00,
2013-12-11 20:12:00,33.4,25.4,30.24,SSE,158,0.0,0.0,72,0.00,,CLR,0.00,VWS V14.01,2013-12-12 01:12:00,
2013-12-11 20:17:00,33.3,25.9,30.27,SSE,158,0.0,0.0,74,0.00,,CLR,0.00,VWS V14.01,2013-12-12 01:17:00,
2013-12-11 20:22:00,33.3,26.2,30.27,SSE,158,0.0,0.0,75,0.00,,CLR,0.00,VWS V14.01,2013-12-12 01:22:00,
2013-12-11 20:27:00,33.1,26.4,30.27,SSE,158,0.0,0.0,76,0.00,,CLR,0.00,VWS V14.01,2013-12-12 01:27:00,
2013-12-11 20:32:00,33.3,26.8,30.27,SSE,158,0.0,0.0,77,0.00,,CLR,0.00,VWS V14.01,2013-12-12 01:32:00,
2013-12-11 20:37:00,33.3,27.1,30.27,SSE,158,0.0,0.0,78,0.00,,CLR,0.00,VWS V14.01,2013-12-12 01:37:00,
2013-12-11 20:42:00,33.3,27.1,30.27,SSE,158,2.2,2.7,78,0.00,,CLR,0.00,VWS V14.01,2013-12-12 01:42:00,
2013-12-11 20:47:00,34.2,27.7,30.27,SSE,158,3.1,3.1,77,0.00,,CLR,0.00,VWS V14.01,2013-12-12 01:47:00,
2013-12-11 20:52:00,33.1,26.7,30.27,South,180,2.7,2.7,77,0.00,,CLR,0.00,VWS V14.01,2013-12-12 01:52:00,
2013-12-11 20:57:00,32.7,26.3,30.27,South,180,0.0,0.0,77,0.00,,CLR,0.00,VWS V14.01,2013-12-12 01:57:00,
2013-12-11 21:02:00,32.9,26.5,30.27,South,180,2.2,2.2,77,0.00,,CLR,0.00,VWS V14.01,2013-12-12 02:02:00,
2013-12-11 21:07:00,33.3,26.8,30.27,South,180,2.7,2.7,77,0.00,,CLR,0.00,VWS V14.01,2013-12-12 02:07:00,
2013-12-11 21:12:00,33.4,26.7,30.27,South,180,2.7,2.7,76,0.00,,CLR,0.00,VWS V14.01,2013-12-12 02:12:00,
2013-12-11 21:17:00,35.8,27.3,30.27,South,180,2.7,3.1,71,0.00,,CLR,0.00,VWS V14.01,2013-12-12 02:17:00,
2013-12-11 21:23:00,35.2,25.0,30.27,South,180,0.0,0.0,66,0.00,,CLR,0.00,VWS V14.01,2013-12-12 02:23:00,
2013-12-11 21:28:00,34.3,24.2,30.27,South,180,2.2,2.2,66,0.00,,CLR,0.00,VWS V14.01,2013-12-12 02:28:00,
2013-12-11 21:33:00,33.4,24.0,30.27,South,180,0.0,2.2,68,0.00,,CLR,0.00,VWS V14.01,2013-12-12 02:33:00,
2013-12-11 21:38:00,32.4,24.4,30.27,South,180,0.0,0.0,72,0.00,,CLR,0.00,VWS V14.01,2013-12-12 02:38:00,
2013-12-11 21:43:00,31.6,24.0,30.27,South,180,0.0,0.0,73,0.00,,CLR,0.00,VWS V14.01,2013-12-12 02:43:00,
2013-12-11 21:48:00,31.1,24.1,30.24,South,180,0.0,0.0,75,0.00,,CLR,0.00,VWS V14.01,2013-12-12 02:48:00,
2013-12-11 21:53:00,30.4,24.0,30.24,South,180,0.0,0.0,77,0.00,,CLR,0.00,VWS V14.01,2013-12-12 02:53:00,
2013-12-11 21:58:00,29.8,24.4,30.24,South,180,0.0,2.7,80,0.00,,CLR,0.00,VWS V14.01,2013-12-12 02:58:00,
2013-12-11 22:03:00,29.7,24.9,30.24,South,180,0.0,0.0,82,0.00,,CLR,0.00,VWS V14.01,2013-12-12 03:03:00,
2013-12-11 22:08:00,29.1,25.2,30.24,South,180,0.0,2.2,85,0.00,,CLR,0.00,VWS V14.01,2013-12-12 03:08:00,
2013-12-11 22:13:00,28.9,25.3,30.24,South,180,0.0,0.0,86,0.00,,CLR,0.00,VWS V14.01,2013-12-12 03:13:00,
2013-12-11 22:18:00,29.5,26.1,30.24,South,180,0.0,0.0,87,0.00,,CLR,0.00,VWS V14.01,2013-12-12 03:18:00,
2013-12-11 22:23:00,30.7,26.8,30.24,South,180,2.2,2.7,85,0.00,,CLR,0.00,VWS V14.01,2013-12-12 03:23:00,
2013-12-11 22:28:00,35.6,27.8,30.24,WNW,292,3.1,3.6,73,0.00,,CLR,0.00,VWS V14.01,2013-12-12 03:28:00,
2013-12-11 22:33:00,39.2,18.0,30.24,WNW,292,5.4,5.4,42,0.00,,CLR,0.00,VWS V14.01,2013-12-12 03:33:00,
2013-12-11 22:38:00,40.5,12.2,30.24,West,270,4.9,4.9,31,0.00,,CLR,0.00,VWS V14.01,2013-12-12 03:38:00,
2013-12-11 22:43:00,41.5,10.9,30.24,WNW,292,4.0,4.0,28,0.00,,CLR,0.00,VWS V14.01,2013-12-12 03:43:00,
2013-12-11 22:48:00,41.5,9.2,30.24,WNW,292,3.1,3.1,26,0.00,,CLR,0.00,VWS V14.01,2013-12-12 03:48:00,
2013-12-11 22:53:00,41.5,9.2,30.24,WNW,292,2.7,2.7,26,0.00,,CLR,0.00,VWS V14.01,2013-12-12 03:53:00,
2013-12-11 22:58:00,40.8,10.2,30.24,WNW,292,0.0,0.0,28,0.00,,CLR,0.00,VWS V14.01,2013-12-12 03:58:00,
2013-12-11 23:03:00,38.3,12.4,30.24,WNW,292,0.0,0.0,34,0.00,,CLR,0.00,VWS V14.01,2013-12-12 04:03:00,
2013-12-11 23:08:00,36.3,14.3,30.24,WNW,292,0.0,2.7,40,0.00,,CLR,0.00,VWS V14.01,2013-12-12 04:08:00,
2013-12-11 23:13:00,36.0,14.0,30.24,WNW,292,0.0,0.0,40,0.00,,CLR,0.00,VWS V14.01,2013-12-12 04:13:00,
2013-12-11 23:18:00,34.2,14.0,30.24,WNW,292,0.0,0.0,43,0.00,,CLR,0.00,VWS V14.01,2013-12-12 04:18:00,
2013-12-11 23:23:00,34.2,12.9,30.24,WNW,292,0.0,2.2,41,0.00,,CLR,0.00,VWS V14.01,2013-12-12 04:23:00,
2013-12-11 23:28:00,34.2,12.4,30.24,WNW,292,2.2,2.2,40,0.00,,CLR,0.00,VWS V14.01,2013-12-12 04:28:00,
2013-12-11 23:33:00,36.3,9.3,30.24,WNW,292,0.0,2.7,32,0.00,,CLR,0.00,VWS V14.01,2013-12-12 04:33:00,
2013-12-11 23:38:00,36.9,9.1,30.24,WNW,292,0.0,0.0,31,0.00,,CLR,0.00,VWS V14.01,2013-12-12 04:38:00,
2013-12-11 23:43:00,38.1,9.4,30.24,WNW,292,3.6,3.6,30,0.00,,CLR,0.00,VWS V14.01,2013-12-12 04:43:00,
2013-12-11 23:48:00,37.9,8.5,30.24,WNW,292,2.2,3.6,29,0.00,,CLR,0.00,VWS V14.01,2013-12-12 04:48:00,
2013-12-11 23:53:00,39.2,8.9,30.24,West,270,0.0,2.7,28,0.00,,CLR,0.00,VWS V14.01,2013-12-12 04:53:00,
2013-12-11 23:58:00,38.5,9.0,30.24,North,0,2.2,2.7,29,0.00,,CLR,0.00,VWS V14.01,2013-12-12 04:58:00,